• Join FlightAware (Why Join?)
  • Login
  • US Flag 
10:19PM EDT


 

Airport Tracker/Info


-or-


 

Live Flight TrackerFlight Track Log ✈ MRA606 ✈ 25-Jan-2014 ✈ KAZO - KLAN

Flight Track Log - Related Links

Times and Time Zones

All times are in EST time to prevent confusion due to time zone crossing. See the MRA606 flight status page for this flight to view local times or setup timezone preferences in your user account.

Time Position Orientation Groundspeed Altitude Reporting Facility
EST Latitude Longitude Course Direction KTS MPH feet Rate Location/Type
04:08PM 42.2925 -85.4150 65° Northeast 158 182 3,000  Level Chicago Center
04:09PM 42.3197 -85.3697 51° Northeast 158 182 3,000  Level Chicago Center
04:10PM 42.3461 -85.3239 52° Northeast 155 178 3,000  Level Chicago Center
04:11PM 42.4642 -85.1318 52° Northeast  Level FlightAware Approximate
04:11PM 42.3717 -85.2742 55° Northeast 160 184 3,000  Level Chicago Center
04:12PM 42.4935 -85.0799 53° Northeast  Level FlightAware Approximate
04:12PM 42.3981 -85.2258 54° Northeast 161 185 3,000  Level Chicago Center
04:13PM 42.4250 -85.1794 52° Northeast 158 182 3,100  Climbing Chicago Center
04:14PM 42.4525 -85.1333 51° Northeast 157 181 3,100  Level Chicago Center
04:15PM 42.4850 -85.0800 50° Northeast 154 177 3,100  Level Chicago Center
04:16PM 42.5111 -85.0328 53° Northeast 156 180 3,100 -120 Level Chicago Center
04:17PM 42.5358 -84.9836 56° Northeast 158 182 2,900 -120 Descending Chicago Center
04:18PM 42.5617 -84.9372 53° Northeast 156 180 2,900  Level Chicago Center
04:19PM 42.5878 -84.8914 52° Northeast 155 178 2,900  Level Chicago Center
04:20PM 42.6144 -84.8444 52° Northeast 156 180 2,900  Level Chicago Center
04:21PM 42.6397 -84.7956 55° Northeast 157 181 2,900  Level Chicago Center
04:22PM 42.6664 -84.7431 55° Northeast 157 181 2,900 -180 Level Chicago Center
04:24PM 42.7186 -84.6067 62° Northeast 165 190 2,400 -240 Descending Cleveland Center
04:25PM 42.7422 -84.5567 57° Northeast 165 190 2,100 -240 Descending Cleveland Center
04:26PM 42.7661 -84.5147 52° Northeast 165 190 2,000 -120 Descending Cleveland Center